Time,TemperatureF,DewpointF,PressureIn,WindDirection,WindDirectionDegrees,WindSpeedMPH,WindSpeedGustMPH,Humidity,HourlyPrecipIn,Conditions,Clouds,dailyrainin,SoftwareType,DateUTC
2013-02-16 00:00:00,56.0,31.4,30.17,North,5,0.0,1.0,39,0.00,,---,0.00,VWS V14.00,2013-02-16 08:00:00,
2013-02-16 00:30:00,60.0,25.0,30.16,North,5,0.0,2.0,26,0.00,,---,0.00,VWS V14.00,2013-02-16 08:30:00,
2013-02-16 01:00:00,55.3,34.9,30.16,North,5,0.0,1.0,46,0.00,,---,0.00,VWS V14.00,2013-02-16 09:00:00,
2013-02-16 01:01:00,61.2,36.7,30.16,North,5,0.0,1.0,40,0.00,,---,0.00,VWS V14.00,2013-02-16 09:01:00,
2013-02-16 01:30:00,57.7,31.6,30.16,North,5,0.0,1.0,37,0.00,,---,0.00,VWS V14.00,2013-02-16 09:30:00,
2013-02-16 02:00:00,53.2,35.6,30.15,North,5,0.0,1.0,51,0.00,,---,0.00,VWS V14.00,2013-02-16 10:00:00,
2013-02-16 02:01:00,55.3,34.9,30.16,North,5,0.0,1.0,46,0.00,,---,0.00,VWS V14.00,2013-02-16 10:01:00,
2013-02-16 02:30:00,53.3,36.6,30.16,North,5,0.0,0.0,53,0.00,,---,0.00,VWS V14.00,2013-02-16 10:30:00,
2013-02-16 03:00:00,53.2,35.6,30.15,North,5,0.0,1.0,51,0.00,,---,0.00,VWS V14.00,2013-02-16 11:00:00,
2013-02-16 03:30:00,53.2,35.1,30.15,North,5,0.0,1.0,50,0.00,,---,0.00,VWS V14.00,2013-02-16 11:30:00,
2013-02-16 04:00:00,54.2,26.5,30.14,North,5,0.0,0.0,34,0.00,,---,0.00,VWS V14.00,2013-02-16 12:00:00,
2013-02-16 04:01:00,53.3,33.1,30.15,North,5,0.0,1.0,46,0.00,,---,0.00,VWS V14.00,2013-02-16 12:01:00,
2013-02-16 04:30:00,53.8,28.2,30.15,North,5,0.0,1.0,37,0.00,,---,0.00,VWS V14.00,2013-02-16 12:30:00,
2013-02-16 05:00:00,54.2,26.5,30.14,North,5,0.0,0.0,34,0.00,,---,0.00,VWS V14.00,2013-02-16 13:00:00,
2013-02-16 05:30:00,53.7,30.6,30.16,North,5,0.0,1.0,41,0.00,,---,0.00,VWS V14.00,2013-02-16 13:30:00,
2013-02-16 05:31:00,53.5,33.8,30.15,North,5,0.0,1.0,47,0.00,,---,0.00,VWS V14.00,2013-02-16 13:31:00,
2013-02-16 06:00:00,53.9,24.7,30.15,North,5,0.0,2.0,32,0.00,,---,0.00,VWS V14.00,2013-02-16 14:00:00,
2013-02-16 06:30:00,53.7,30.6,30.16,North,5,0.0,1.0,41,0.00,,---,0.00,VWS V14.00,2013-02-16 14:30:00,
2013-02-16 07:00:00,52.7,30.3,30.17,North,5,0.0,0.0,42,0.00,,---,0.00,VWS V14.00,2013-02-16 15:00:00,
2013-02-16 07:30:00,53.7,34.5,30.17,North,5,0.0,0.0,48,0.00,,---,0.00,VWS V14.00,2013-02-16 15:30:00,
2013-02-16 08:00:00,58.7,39.1,30.17,North,5,0.0,1.0,48,0.00,,---,0.00,VWS V14.00,2013-02-16 16:00:00,
2013-02-16 08:30:00,61.6,44.3,30.17,North,5,0.0,1.0,53,0.00,,---,0.00,VWS V14.00,2013-02-16 16:30:00,
2013-02-16 09:00:00,62.3,50.4,30.17,North,360,0.0,2.0,65,0.00,,---,0.00,VWS V14.00,2013-02-16 17:00:00,
2013-02-16 09:30:00,63.9,46.5,30.17,North,360,0.0,1.0,53,0.00,,---,0.00,VWS V14.00,2013-02-16 17:30:00,
2013-02-16 10:00:00,64.5,42.1,30.16,North,360,0.0,2.0,44,0.00,,---,0.00,VWS V14.00,2013-02-16 18:00:00,
2013-02-16 10:30:00,67.1,36.3,30.16,NNW,337,1.0,3.0,32,0.00,,---,0.00,VWS V14.00,2013-02-16 18:30:00,
2013-02-16 11:00:00,65.5,49.4,30.12,NW,309,0.0,3.0,56,0.00,,---,0.00,VWS V14.00,2013-02-16 19:00:00,
2013-02-16 11:30:00,65.9,51.2,30.09,West,270,1.0,5.0,59,0.00,,---,0.00,VWS V14.00,2013-02-16 19:30:00,
2013-02-16 12:00:00,67.3,50.6,30.08,West,268,2.0,5.0,55,0.00,,---,0.00,VWS V14.00,2013-02-16 20:00:00,
2013-02-16 12:01:00,65.5,49.4,30.12,NW,309,0.0,3.0,56,0.00,,---,0.00,VWS V14.00,2013-02-16 20:01:00,
2013-02-16 12:30:00,66.3,52.0,30.07,West,271,5.0,6.0,60,0.00,,---,0.00,VWS V14.00,2013-02-16 20:30:00,
2013-02-16 12:31:00,65.9,51.2,30.09,West,270,1.0,5.0,59,0.00,,---,0.00,VWS V14.00,2013-02-16 20:31:00,
2013-02-16 13:00:00,67.3,50.6,30.08,West,268,2.0,5.0,55,0.00,,---,0.00,VWS V14.00,2013-02-16 21:00:00,
2013-02-16 13:30:00,66.8,49.6,30.04,West,267,5.0,6.0,54,0.00,,---,0.00,VWS V14.00,2013-02-16 21:30:00,
2013-02-16 13:31:00,66.3,52.0,30.07,West,271,5.0,6.0,60,0.00,,---,0.00,VWS V14.00,2013-02-16 21:31:00,
2013-02-16 14:00:00,67.2,50.5,30.05,West,275,4.0,5.0,55,0.00,,---,0.00,VWS V14.00,2013-02-16 22:00:00,
2013-02-16 14:30:00,66.8,49.6,30.04,West,267,5.0,6.0,54,0.00,,---,0.00,VWS V14.00,2013-02-16 22:30:00,
2013-02-16 15:00:00,65.1,47.1,30.02,NW,304,1.0,6.0,52,0.00,,---,0.00,VWS V14.00,2013-02-16 23:00:00,
2013-02-16 15:01:00,65.7,50.1,30.04,West,277,3.0,6.0,57,0.00,,---,0.00,VWS V14.00,2013-02-16 23:01:00,
2013-02-16 15:30:00,65.4,44.1,30.02,WNW,290,5.0,5.0,46,0.00,,---,0.00,VWS V14.00,2013-02-16 23:30:00,
2013-02-16 15:31:00,64.9,48.8,30.03,West,271,1.0,7.0,56,0.00,,---,0.00,VWS V14.00,2013-02-16 23:31:00,
2013-02-16 16:00:00,65.1,47.1,30.02,NW,304,1.0,6.0,52,0.00,,---,0.00,VWS V14.00,2013-02-17 00:00:00,
2013-02-16 16:30:00,65.4,44.1,30.02,WNW,290,5.0,5.0,46,0.00,,---,0.00,VWS V14.00,2013-02-17 00:30:00,
2013-02-16 17:00:00,63.9,47.0,30.01,West,277,1.0,5.0,54,0.00,,---,0.00,VWS V14.00,2013-02-17 01:00:00,
2013-02-16 17:30:00,63.3,38.6,30.01,NW,309,1.0,4.0,40,0.00,,---,0.00,VWS V14.00,2013-02-17 01:30:00,
2013-02-16 18:00:00,62.1,42.2,30.02,NW,310,0.0,4.0,48,0.00,,---,0.00,VWS V14.00,2013-02-17 02:00:00,
2013-02-16 18:30:00,63.4,33.8,30.02,NW,316,0.0,3.0,33,0.00,,---,0.00,VWS V14.00,2013-02-17 02:30:00,
2013-02-16 19:00:00,62.9,31.8,30.02,NW,318,0.0,1.0,31,0.00,,---,0.00,VWS V14.00,2013-02-17 03:00:00,
2013-02-16 19:01:00,61.8,30.9,30.02,NW,316,0.0,0.0,31,0.00,,---,0.00,VWS V14.00,2013-02-17 03:01:00,
2013-02-16 19:30:00,60.0,28.5,30.01,NW,318,0.0,0.0,30,0.00,,---,0.00,VWS V14.00,2013-02-17 03:30:00,
2013-02-16 19:31:00,64.0,26.5,30.01,NW,317,0.0,1.0,24,0.00,,---,0.00,VWS V14.00,2013-02-17 03:31:00,
2013-02-16 20:00:00,62.9,31.8,30.02,NW,318,0.0,1.0,31,0.00,,---,0.00,VWS V14.00,2013-02-17 04:00:00,
2013-02-16 20:30:00,60.0,28.5,30.01,NW,318,0.0,0.0,30,0.00,,---,0.00,VWS V14.00,2013-02-17 04:30:00,
2013-02-16 21:00:00,59.0,29.2,30.02,NW,318,0.0,0.0,32,0.00,,---,0.00,VWS V14.00,2013-02-17 05:00:00,
2013-02-16 21:30:00,55.8,42.6,30.02,NW,321,0.0,0.0,61,0.00,,---,0.00,VWS V14.00,2013-02-17 05:30:00,
2013-02-16 21:31:00,57.5,29.4,30.02,NW,320,0.0,1.0,34,0.00,,---,0.00,VWS V14.00,2013-02-17 05:31:00,
2013-02-16 22:00:00,57.2,31.8,30.02,NW,321,0.0,0.0,38,0.00,,---,0.00,VWS V14.00,2013-02-17 06:00:00,
2013-02-16 22:30:00,55.8,42.6,30.02,NW,321,0.0,0.0,61,0.00,,---,0.00,VWS V14.00,2013-02-17 06:30:00,
2013-02-16 23:00:00,57.3,38.8,30.02,East,94,1.0,6.0,50,0.00,,---,0.00,VWS V14.00,2013-02-17 07:00:00,
2013-02-16 23:01:00,53.2,37.9,30.03,NW,321,0.0,0.0,56,0.00,,---,0.00,VWS V14.00,2013-02-17 07:01:00,
2013-02-16 23:30:00,56.6,40.6,30.02,East,95,3.0,7.0,55,0.00,,---,0.00,VWS V14.00,2013-02-17 07:30:00,